sensor_id;sensor_type;location;lat;lon;timestamp;P1;durP1;ratioP1;P2;durP2;ratioP2
261;SDS011;114;48.260;10.988;2022-12-18T00:01:21;36.03;;;21.00;;
261;SDS011;114;48.260;10.988;2022-12-18T00:03:50;34.63;;;20.70;;
261;SDS011;114;48.260;10.988;2022-12-18T00:06:16;36.47;;;20.67;;
261;SDS011;114;48.260;10.988;2022-12-18T00:08:43;40.23;;;19.97;;
261;SDS011;114;48.260;10.988;2022-12-18T00:11:16;36.87;;;20.53;;
261;SDS011;114;48.260;10.988;2022-12-18T00:13:44;31.70;;;20.00;;
261;SDS011;114;48.260;10.988;2022-12-18T00:16:11;33.83;;;21.37;;
261;SDS011;114;48.260;10.988;2022-12-18T00:18:38;36.53;;;20.87;;
261;SDS011;114;48.260;10.988;2022-12-18T00:21:05;29.17;;;18.80;;
261;SDS011;114;48.260;10.988;2022-12-18T00:23:34;33.17;;;20.00;;
261;SDS011;114;48.260;10.988;2022-12-18T00:26:06;39.97;;;23.57;;
261;SDS011;114;48.260;10.988;2022-12-18T00:28:34;39.80;;;23.17;;
261;SDS011;114;48.260;10.988;2022-12-18T00:33:34;38.63;;;20.87;;
261;SDS011;114;48.260;10.988;2022-12-18T00:36:01;32.17;;;19.07;;
261;SDS011;114;48.260;10.988;2022-12-18T00:38:28;34.00;;;20.23;;
261;SDS011;114;48.260;10.988;2022-12-18T00:40:54;32.10;;;19.37;;
261;SDS011;114;48.260;10.988;2022-12-18T00:43:19;26.43;;;16.80;;
261;SDS011;114;48.260;10.988;2022-12-18T00:45:45;30.63;;;19.20;;
261;SDS011;114;48.260;10.988;2022-12-18T00:48:11;34.43;;;20.80;;
261;SDS011;114;48.260;10.988;2022-12-18T00:50:36;34.53;;;19.50;;
261;SDS011;114;48.260;10.988;2022-12-18T00:53:03;34.67;;;20.97;;
261;SDS011;114;48.260;10.988;2022-12-18T00:55:29;37.20;;;19.90;;
261;SDS011;114;48.260;10.988;2022-12-18T00:57:54;40.73;;;22.17;;
261;SDS011;114;48.260;10.988;2022-12-18T01:00:20;35.70;;;19.80;;
261;SDS011;114;48.260;10.988;2022-12-18T01:02:47;36.77;;;20.13;;
261;SDS011;114;48.260;10.988;2022-12-18T01:05:13;33.87;;;19.87;;
261;SDS011;114;48.260;10.988;2022-12-18T01:07:39;34.50;;;18.10;;
261;SDS011;114;48.260;10.988;2022-12-18T01:10:05;32.23;;;18.43;;
261;SDS011;114;48.260;10.988;2022-12-18T01:12:32;38.40;;;20.40;;
261;SDS011;114;48.260;10.988;2022-12-18T01:14:58;39.70;;;20.80;;
261;SDS011;114;48.260;10.988;2022-12-18T01:17:24;43.90;;;22.80;;
261;SDS011;114;48.260;10.988;2022-12-18T01:19:50;42.03;;;23.20;;
261;SDS011;114;48.260;10.988;2022-12-18T01:22:15;50.33;;;26.37;;
261;SDS011;114;48.260;10.988;2022-12-18T01:24:41;55.53;;;28.13;;
261;SDS011;114;48.260;10.988;2022-12-18T01:27:07;58.90;;;27.97;;
261;SDS011;114;48.260;10.988;2022-12-18T01:29:32;47.57;;;25.80;;
261;SDS011;114;48.260;10.988;2022-12-18T01:31:58;51.50;;;27.10;;
261;SDS011;114;48.260;10.988;2022-12-18T01:34:24;61.53;;;27.70;;
261;SDS011;114;48.260;10.988;2022-12-18T01:36:50;61.80;;;28.60;;
261;SDS011;114;48.260;10.988;2022-12-18T01:39:18;62.90;;;28.80;;
261;SDS011;114;48.260;10.988;2022-12-18T01:41:44;65.87;;;30.10;;
261;SDS011;114;48.260;10.988;2022-12-18T01:50:16;60.63;;;28.63;;
261;SDS011;114;48.260;10.988;2022-12-18T01:52:42;72.70;;;30.73;;
261;SDS011;114;48.260;10.988;2022-12-18T01:55:12;68.63;;;30.73;;
261;SDS011;114;48.260;10.988;2022-12-18T01:57:40;68.60;;;30.73;;
261;SDS011;114;48.260;10.988;2022-12-18T02:00:08;66.97;;;30.20;;
261;SDS011;114;48.260;10.988;2022-12-18T02:02:37;71.43;;;33.03;;
261;SDS011;114;48.260;10.988;2022-12-18T02:05:04;64.40;;;31.20;;
261;SDS011;114;48.260;10.988;2022-12-18T02:10:35;64.87;;;30.33;;
261;SDS011;114;48.260;10.988;2022-12-18T02:13:28;60.87;;;28.27;;
261;SDS011;114;48.260;10.988;2022-12-18T02:18:35;71.40;;;30.37;;
261;SDS011;114;48.260;10.988;2022-12-18T02:21:21;69.20;;;31.47;;
261;SDS011;114;48.260;10.988;2022-12-18T02:26:58;66.43;;;30.57;;
261;SDS011;114;48.260;10.988;2022-12-18T02:32:24;63.63;;;29.33;;
261;SDS011;114;48.260;10.988;2022-12-18T02:34:52;70.90;;;31.00;;
261;SDS011;114;48.260;10.988;2022-12-18T02:37:21;63.50;;;28.73;;
261;SDS011;114;48.260;10.988;2022-12-18T02:39:49;64.47;;;29.63;;
261;SDS011;114;48.260;10.988;2022-12-18T02:42:16;65.33;;;29.17;;
261;SDS011;114;48.260;10.988;2022-12-18T02:44:48;74.40;;;31.97;;
261;SDS011;114;48.260;10.988;2022-12-18T02:47:15;60.03;;;29.03;;
261;SDS011;114;48.260;10.988;2022-12-18T02:52:42;59.10;;;27.83;;
261;SDS011;114;48.260;10.988;2022-12-18T02:58:33;56.70;;;26.47;;
261;SDS011;114;48.260;10.988;2022-12-18T03:04:25;49.10;;;23.97;;
261;SDS011;114;48.260;10.988;2022-12-18T03:07:19;57.53;;;23.30;;
261;SDS011;114;48.260;10.988;2022-12-18T03:10:03;47.93;;;22.57;;
261;SDS011;114;48.260;10.988;2022-12-18T03:12:32;55.80;;;23.23;;
261;SDS011;114;48.260;10.988;2022-12-18T03:15:07;59.77;;;24.17;;
261;SDS011;114;48.260;10.988;2022-12-18T03:17:51;54.70;;;21.70;;
261;SDS011;114;48.260;10.988;2022-12-18T03:20:22;58.63;;;23.90;;
261;SDS011;114;48.260;10.988;2022-12-18T03:22:51;47.10;;;21.30;;
261;SDS011;114;48.260;10.988;2022-12-18T03:25:21;48.53;;;21.30;;
261;SDS011;114;48.260;10.988;2022-12-18T03:27:49;49.40;;;22.10;;
261;SDS011;114;48.260;10.988;2022-12-18T03:30:19;45.13;;;22.40;;
261;SDS011;114;48.260;10.988;2022-12-18T03:32:47;60.80;;;25.13;;
261;SDS011;114;48.260;10.988;2022-12-18T03:35:24;49.47;;;21.47;;
261;SDS011;114;48.260;10.988;2022-12-18T03:37:55;50.00;;;21.40;;
261;SDS011;114;48.260;10.988;2022-12-18T03:40:21;46.33;;;22.00;;
261;SDS011;114;48.260;10.988;2022-12-18T03:43:09;56.50;;;22.40;;
261;SDS011;114;48.260;10.988;2022-12-18T03:45:42;38.30;;;19.50;;
261;SDS011;114;48.260;10.988;2022-12-18T03:48:17;48.50;;;20.60;;
261;SDS011;114;48.260;10.988;2022-12-18T03:55:59;50.17;;;21.07;;
261;SDS011;114;48.260;10.988;2022-12-18T03:58:26;52.13;;;23.03;;
261;SDS011;114;48.260;10.988;2022-12-18T04:00:54;53.60;;;23.30;;
261;SDS011;114;48.260;10.988;2022-12-18T04:03:24;51.13;;;20.50;;
261;SDS011;114;48.260;10.988;2022-12-18T04:05:51;57.93;;;23.87;;
261;SDS011;114;48.260;10.988;2022-12-18T04:08:19;46.50;;;21.63;;
261;SDS011;114;48.260;10.988;2022-12-18T04:10:46;47.37;;;20.93;;
261;SDS011;114;48.260;10.988;2022-12-18T04:13:12;49.37;;;21.10;;
261;SDS011;114;48.260;10.988;2022-12-18T04:15:54;49.57;;;22.50;;
261;SDS011;114;48.260;10.988;2022-12-18T04:18:19;54.17;;;23.50;;
261;SDS011;114;48.260;10.988;2022-12-18T04:20:45;51.60;;;22.60;;
261;SDS011;114;48.260;10.988;2022-12-18T04:23:11;46.40;;;21.23;;
261;SDS011;114;48.260;10.988;2022-12-18T04:25:37;47.17;;;21.23;;
261;SDS011;114;48.260;10.988;2022-12-18T04:28:03;53.60;;;25.00;;
261;SDS011;114;48.260;10.988;2022-12-18T04:30:28;51.67;;;23.53;;
261;SDS011;114;48.260;10.988;2022-12-18T04:32:54;50.87;;;23.07;;
261;SDS011;114;48.260;10.988;2022-12-18T04:35:20;49.20;;;24.43;;
261;SDS011;114;48.260;10.988;2022-12-18T04:37:45;60.13;;;24.50;;
261;SDS011;114;48.260;10.988;2022-12-18T04:40:11;52.27;;;22.50;;
261;SDS011;114;48.260;10.988;2022-12-18T04:42:38;50.00;;;22.90;;
261;SDS011;114;48.260;10.988;2022-12-18T04:45:05;54.87;;;24.07;;
261;SDS011;114;48.260;10.988;2022-12-18T04:47:31;48.30;;;22.93;;
261;SDS011;114;48.260;10.988;2022-12-18T04:49:57;49.00;;;24.33;;
261;SDS011;114;48.260;10.988;2022-12-18T04:52:23;50.43;;;24.00;;
261;SDS011;114;48.260;10.988;2022-12-18T04:54:49;62.70;;;26.10;;
261;SDS011;114;48.260;10.988;2022-12-18T04:57:14;57.50;;;26.83;;
261;SDS011;114;48.260;10.988;2022-12-18T04:59:40;57.53;;;24.20;;
261;SDS011;114;48.260;10.988;2022-12-18T05:02:06;57.63;;;26.80;;
261;SDS011;114;48.260;10.988;2022-12-18T05:04:32;56.50;;;26.23;;
261;SDS011;114;48.260;10.988;2022-12-18T05:06:57;56.93;;;25.10;;
261;SDS011;114;48.260;10.988;2022-12-18T05:09:23;59.23;;;25.70;;
261;SDS011;114;48.260;10.988;2022-12-18T05:11:49;55.00;;;24.63;;
261;SDS011;114;48.260;10.988;2022-12-18T05:14:14;52.30;;;23.97;;
261;SDS011;114;48.260;10.988;2022-12-18T05:16:40;60.37;;;26.93;;
261;SDS011;114;48.260;10.988;2022-12-18T05:19:06;62.70;;;24.37;;
261;SDS011;114;48.260;10.988;2022-12-18T05:21:32;58.40;;;26.53;;
261;SDS011;114;48.260;10.988;2022-12-18T05:23:57;60.90;;;26.27;;
261;SDS011;114;48.260;10.988;2022-12-18T05:26:23;66.47;;;27.37;;
261;SDS011;114;48.260;10.988;2022-12-18T05:28:49;61.83;;;25.50;;
261;SDS011;114;48.260;10.988;2022-12-18T05:31:14;59.40;;;23.90;;
261;SDS011;114;48.260;10.988;2022-12-18T05:33:40;52.83;;;24.17;;
261;SDS011;114;48.260;10.988;2022-12-18T05:36:07;67.10;;;26.07;;
261;SDS011;114;48.260;10.988;2022-12-18T05:38:34;57.23;;;25.87;;
261;SDS011;114;48.260;10.988;2022-12-18T05:41:02;59.40;;;26.10;;
261;SDS011;114;48.260;10.988;2022-12-18T05:43:28;54.57;;;24.83;;
261;SDS011;114;48.260;10.988;2022-12-18T05:45:54;57.13;;;24.43;;
261;SDS011;114;48.260;10.988;2022-12-18T05:48:21;56.93;;;25.70;;
261;SDS011;114;48.260;10.988;2022-12-18T05:50:47;62.30;;;26.23;;
261;SDS011;114;48.260;10.988;2022-12-18T05:53:14;58.30;;;26.53;;
261;SDS011;114;48.260;10.988;2022-12-18T05:55:43;60.77;;;25.03;;
261;SDS011;114;48.260;10.988;2022-12-18T05:58:10;59.40;;;25.30;;
261;SDS011;114;48.260;10.988;2022-12-18T06:00:37;61.80;;;24.93;;
261;SDS011;114;48.260;10.988;2022-12-18T06:03:07;63.77;;;27.80;;
261;SDS011;114;48.260;10.988;2022-12-18T06:05:35;52.03;;;24.30;;
261;SDS011;114;48.260;10.988;2022-12-18T06:08:02;53.13;;;24.57;;
261;SDS011;114;48.260;10.988;2022-12-18T06:10:28;55.07;;;24.90;;
261;SDS011;114;48.260;10.988;2022-12-18T06:12:54;46.17;;;21.60;;
261;SDS011;114;48.260;10.988;2022-12-18T06:15:19;45.50;;;21.97;;
261;SDS011;114;48.260;10.988;2022-12-18T06:17:45;51.13;;;24.37;;
261;SDS011;114;48.260;10.988;2022-12-18T06:20:11;53.53;;;23.53;;
261;SDS011;114;48.260;10.988;2022-12-18T06:22:36;55.23;;;24.77;;
261;SDS011;114;48.260;10.988;2022-12-18T06:25:02;56.20;;;23.50;;
261;SDS011;114;48.260;10.988;2022-12-18T06:27:29;49.37;;;22.13;;
261;SDS011;114;48.260;10.988;2022-12-18T06:29:54;49.73;;;24.13;;
261;SDS011;114;48.260;10.988;2022-12-18T06:32:20;55.93;;;23.10;;
261;SDS011;114;48.260;10.988;2022-12-18T06:34:46;50.80;;;23.20;;
261;SDS011;114;48.260;10.988;2022-12-18T06:37:12;45.10;;;21.57;;
261;SDS011;114;48.260;10.988;2022-12-18T06:39:38;49.20;;;21.17;;
261;SDS011;114;48.260;10.988;2022-12-18T06:42:04;55.63;;;24.10;;
261;SDS011;114;48.260;10.988;2022-12-18T06:44:30;55.10;;;24.97;;
261;SDS011;114;48.260;10.988;2022-12-18T06:46:56;49.13;;;21.07;;
261;SDS011;114;48.260;10.988;2022-12-18T06:49:21;52.37;;;22.33;;
261;SDS011;114;48.260;10.988;2022-12-18T06:51:47;47.20;;;23.90;;
261;SDS011;114;48.260;10.988;2022-12-18T06:54:13;45.53;;;21.37;;
261;SDS011;114;48.260;10.988;2022-12-18T06:56:39;47.10;;;22.97;;
261;SDS011;114;48.260;10.988;2022-12-18T06:59:04;55.47;;;23.77;;
261;SDS011;114;48.260;10.988;2022-12-18T07:01:30;53.30;;;24.50;;
261;SDS011;114;48.260;10.988;2022-12-18T07:03:56;46.17;;;22.57;;
261;SDS011;114;48.260;10.988;2022-12-18T07:06:23;48.17;;;23.40;;
261;SDS011;114;48.260;10.988;2022-12-18T07:08:50;46.63;;;22.30;;
261;SDS011;114;48.260;10.988;2022-12-18T07:11:18;48.97;;;22.87;;
261;SDS011;114;48.260;10.988;2022-12-18T07:13:44;54.03;;;21.33;;
261;SDS011;114;48.260;10.988;2022-12-18T07:16:20;46.50;;;20.87;;
261;SDS011;114;48.260;10.988;2022-12-18T07:18:46;46.60;;;22.50;;
261;SDS011;114;48.260;10.988;2022-12-18T07:21:14;43.07;;;22.20;;
261;SDS011;114;48.260;10.988;2022-12-18T07:23:41;47.80;;;22.30;;
261;SDS011;114;48.260;10.988;2022-12-18T07:26:08;44.43;;;22.03;;
261;SDS011;114;48.260;10.988;2022-12-18T07:28:36;48.37;;;22.73;;
261;SDS011;114;48.260;10.988;2022-12-18T07:31:03;45.50;;;22.10;;
261;SDS011;114;48.260;10.988;2022-12-18T07:33:31;44.30;;;22.37;;
261;SDS011;114;48.260;10.988;2022-12-18T07:35:58;44.77;;;21.60;;
261;SDS011;114;48.260;10.988;2022-12-18T07:38:24;51.30;;;22.50;;
261;SDS011;114;48.260;10.988;2022-12-18T07:40:50;49.70;;;23.07;;
261;SDS011;114;48.260;10.988;2022-12-18T07:43:16;43.43;;;21.73;;
261;SDS011;114;48.260;10.988;2022-12-18T07:45:42;46.30;;;22.00;;
261;SDS011;114;48.260;10.988;2022-12-18T07:48:11;45.40;;;21.90;;
261;SDS011;114;48.260;10.988;2022-12-18T07:50:37;55.77;;;23.73;;
261;SDS011;114;48.260;10.988;2022-12-18T07:53:03;46.50;;;23.10;;
261;SDS011;114;48.260;10.988;2022-12-18T07:55:30;45.23;;;21.50;;
261;SDS011;114;48.260;10.988;2022-12-18T07:57:56;44.77;;;22.30;;
261;SDS011;114;48.260;10.988;2022-12-18T08:00:25;46.20;;;21.47;;
261;SDS011;114;48.260;10.988;2022-12-18T08:02:51;41.50;;;20.60;;
261;SDS011;114;48.260;10.988;2022-12-18T08:05:19;38.27;;;19.40;;
261;SDS011;114;48.260;10.988;2022-12-18T08:07:46;41.23;;;20.80;;
261;SDS011;114;48.260;10.988;2022-12-18T08:10:12;48.23;;;22.43;;
261;SDS011;114;48.260;10.988;2022-12-18T08:12:38;43.23;;;21.80;;
261;SDS011;114;48.260;10.988;2022-12-18T08:15:04;40.93;;;19.87;;
261;SDS011;114;48.260;10.988;2022-12-18T08:17:30;39.20;;;19.50;;
261;SDS011;114;48.260;10.988;2022-12-18T08:19:56;39.10;;;22.00;;
261;SDS011;114;48.260;10.988;2022-12-18T08:22:21;41.50;;;20.30;;
261;SDS011;114;48.260;10.988;2022-12-18T08:24:47;42.70;;;21.17;;
261;SDS011;114;48.260;10.988;2022-12-18T08:27:13;37.03;;;20.03;;
261;SDS011;114;48.260;10.988;2022-12-18T08:29:39;46.03;;;22.97;;
261;SDS011;114;48.260;10.988;2022-12-18T08:32:04;39.97;;;21.20;;
261;SDS011;114;48.260;10.988;2022-12-18T08:34:31;39.40;;;20.80;;
261;SDS011;114;48.260;10.988;2022-12-18T08:36:57;44.53;;;22.37;;
261;SDS011;114;48.260;10.988;2022-12-18T08:39:23;43.93;;;20.43;;
261;SDS011;114;48.260;10.988;2022-12-18T08:41:48;41.77;;;21.53;;
261;SDS011;114;48.260;10.988;2022-12-18T08:44:33;36.43;;;20.73;;
261;SDS011;114;48.260;10.988;2022-12-18T08:47:06;41.90;;;19.70;;
261;SDS011;114;48.260;10.988;2022-12-18T08:49:32;37.87;;;21.20;;
261;SDS011;114;48.260;10.988;2022-12-18T08:51:58;36.07;;;20.50;;
261;SDS011;114;48.260;10.988;2022-12-18T08:54:24;40.07;;;22.13;;
261;SDS011;114;48.260;10.988;2022-12-18T08:56:51;40.73;;;22.83;;
261;SDS011;114;48.260;10.988;2022-12-18T08:59:17;44.17;;;23.10;;
261;SDS011;114;48.260;10.988;2022-12-18T09:01:43;42.73;;;22.50;;
261;SDS011;114;48.260;10.988;2022-12-18T09:04:10;38.80;;;20.50;;
261;SDS011;114;48.260;10.988;2022-12-18T09:06:36;37.20;;;21.23;;
261;SDS011;114;48.260;10.988;2022-12-18T09:09:02;41.80;;;20.77;;
261;SDS011;114;48.260;10.988;2022-12-18T09:11:30;35.83;;;19.57;;
261;SDS011;114;48.260;10.988;2022-12-18T09:13:57;43.30;;;22.00;;
261;SDS011;114;48.260;10.988;2022-12-18T09:16:25;34.63;;;18.40;;
261;SDS011;114;48.260;10.988;2022-12-18T09:18:54;38.77;;;19.60;;
261;SDS011;114;48.260;10.988;2022-12-18T09:21:24;33.60;;;20.00;;
261;SDS011;114;48.260;10.988;2022-12-18T09:23:52;37.20;;;19.60;;
261;SDS011;114;48.260;10.988;2022-12-18T09:26:20;35.27;;;19.73;;
261;SDS011;114;48.260;10.988;2022-12-18T09:28:46;32.90;;;19.03;;
261;SDS011;114;48.260;10.988;2022-12-18T09:31:16;30.00;;;17.27;;
261;SDS011;114;48.260;10.988;2022-12-18T09:33:43;34.53;;;20.73;;
261;SDS011;114;48.260;10.988;2022-12-18T09:36:11;31.90;;;19.40;;
261;SDS011;114;48.260;10.988;2022-12-18T09:38:38;35.47;;;19.23;;
261;SDS011;114;48.260;10.988;2022-12-18T09:41:05;35.60;;;19.17;;
261;SDS011;114;48.260;10.988;2022-12-18T09:43:41;39.47;;;19.63;;
261;SDS011;114;48.260;10.988;2022-12-18T09:46:20;30.90;;;18.00;;
261;SDS011;114;48.260;10.988;2022-12-18T09:48:52;33.03;;;18.87;;
261;SDS011;114;48.260;10.988;2022-12-18T09:54:14;30.20;;;17.83;;
261;SDS011;114;48.260;10.988;2022-12-18T09:56:43;35.30;;;19.17;;
261;SDS011;114;48.260;10.988;2022-12-18T09:59:21;31.07;;;17.97;;
261;SDS011;114;48.260;10.988;2022-12-18T10:01:50;30.43;;;16.43;;
261;SDS011;114;48.260;10.988;2022-12-18T10:04:16;33.03;;;18.60;;
261;SDS011;114;48.260;10.988;2022-12-18T10:06:55;35.70;;;18.70;;
261;SDS011;114;48.260;10.988;2022-12-18T10:09:40;34.70;;;17.60;;
261;SDS011;114;48.260;10.988;2022-12-18T10:22:48;33.20;;;19.43;;
261;SDS011;114;48.260;10.988;2022-12-18T10:28:21;37.80;;;19.00;;
261;SDS011;114;48.260;10.988;2022-12-18T10:30:49;30.63;;;18.83;;
261;SDS011;114;48.260;10.988;2022-12-18T10:33:19;38.40;;;19.97;;
261;SDS011;114;48.260;10.988;2022-12-18T10:35:48;35.63;;;19.63;;
261;SDS011;114;48.260;10.988;2022-12-18T10:41:03;37.83;;;20.50;;
261;SDS011;114;48.260;10.988;2022-12-18T10:43:35;36.83;;;19.97;;
261;SDS011;114;48.260;10.988;2022-12-18T10:46:11;34.53;;;20.70;;
261;SDS011;114;48.260;10.988;2022-12-18T10:51:29;31.10;;;18.90;;
261;SDS011;114;48.260;10.988;2022-12-18T10:54:03;35.67;;;19.50;;
261;SDS011;114;48.260;10.988;2022-12-18T10:56:39;33.30;;;19.23;;
261;SDS011;114;48.260;10.988;2022-12-18T10:59:06;32.90;;;19.70;;
261;SDS011;114;48.260;10.988;2022-12-18T11:04:50;33.80;;;18.90;;
261;SDS011;114;48.260;10.988;2022-12-18T11:07:16;34.83;;;19.23;;
261;SDS011;114;48.260;10.988;2022-12-18T11:09:42;28.37;;;17.87;;
261;SDS011;114;48.260;10.988;2022-12-18T11:12:18;33.63;;;20.07;;
261;SDS011;114;48.260;10.988;2022-12-18T11:14:48;33.63;;;19.90;;
261;SDS011;114;48.260;10.988;2022-12-18T11:20:39;32.80;;;19.30;;
261;SDS011;114;48.260;10.988;2022-12-18T11:23:04;37.17;;;20.10;;
261;SDS011;114;48.260;10.988;2022-12-18T11:25:36;34.90;;;19.70;;
261;SDS011;114;48.260;10.988;2022-12-18T11:28:03;31.40;;;18.70;;
261;SDS011;114;48.260;10.988;2022-12-18T11:30:48;31.13;;;18.23;;
261;SDS011;114;48.260;10.988;2022-12-18T11:33:23;31.73;;;17.83;;
261;SDS011;114;48.260;10.988;2022-12-18T11:38:55;30.70;;;19.17;;
261;SDS011;114;48.260;10.988;2022-12-18T11:44:50;35.03;;;19.13;;
261;SDS011;114;48.260;10.988;2022-12-18T11:49:50;29.27;;;18.73;;
261;SDS011;114;48.260;10.988;2022-12-18T11:52:19;30.60;;;17.43;;
261;SDS011;114;48.260;10.988;2022-12-18T11:54:59;28.20;;;17.63;;
261;SDS011;114;48.260;10.988;2022-12-18T11:57:34;33.60;;;19.80;;
261;SDS011;114;48.260;10.988;2022-12-18T12:00:19;32.20;;;19.17;;
261;SDS011;114;48.260;10.988;2022-12-18T12:05:40;31.40;;;19.97;;
261;SDS011;114;48.260;10.988;2022-12-18T12:11:12;32.87;;;19.50;;
261;SDS011;114;48.260;10.988;2022-12-18T12:19:50;33.10;;;18.57;;
261;SDS011;114;48.260;10.988;2022-12-18T12:26:04;31.97;;;17.43;;
261;SDS011;114;48.260;10.988;2022-12-18T12:28:36;33.73;;;18.67;;
261;SDS011;114;48.260;10.988;2022-12-18T12:34:16;32.27;;;19.20;;
261;SDS011;114;48.260;10.988;2022-12-18T12:37:11;32.33;;;19.37;;
261;SDS011;114;48.260;10.988;2022-12-18T12:40:02;31.77;;;19.00;;
261;SDS011;114;48.260;10.988;2022-12-18T12:42:33;36.90;;;19.60;;
261;SDS011;114;48.260;10.988;2022-12-18T12:45:28;33.53;;;20.03;;
261;SDS011;114;48.260;10.988;2022-12-18T12:48:18;35.30;;;19.80;;
261;SDS011;114;48.260;10.988;2022-12-18T12:50:47;44.07;;;21.70;;
261;SDS011;114;48.260;10.988;2022-12-18T12:53:17;35.20;;;20.73;;
261;SDS011;114;48.260;10.988;2022-12-18T12:55:51;34.90;;;19.73;;
261;SDS011;114;48.260;10.988;2022-12-18T13:01:05;38.97;;;20.63;;
261;SDS011;114;48.260;10.988;2022-12-18T13:03:50;35.57;;;20.10;;
261;SDS011;114;48.260;10.988;2022-12-18T13:06:51;29.93;;;18.47;;
261;SDS011;114;48.260;10.988;2022-12-18T13:09:33;35.50;;;20.33;;
261;SDS011;114;48.260;10.988;2022-12-18T13:12:19;32.03;;;18.67;;
261;SDS011;114;48.260;10.988;2022-12-18T13:15:18;35.70;;;19.87;;
261;SDS011;114;48.260;10.988;2022-12-18T13:17:47;33.27;;;21.13;;
261;SDS011;114;48.260;10.988;2022-12-18T13:20:13;29.13;;;17.77;;
261;SDS011;114;48.260;10.988;2022-12-18T13:22:47;34.53;;;19.23;;
261;SDS011;114;48.260;10.988;2022-12-18T13:28:04;30.90;;;19.43;;
261;SDS011;114;48.260;10.988;2022-12-18T13:41:00;39.40;;;20.00;;
261;SDS011;114;48.260;10.988;2022-12-18T13:43:31;34.73;;;19.83;;
261;SDS011;114;48.260;10.988;2022-12-18T13:46:20;34.47;;;20.50;;
261;SDS011;114;48.260;10.988;2022-12-18T13:51:47;44.73;;;21.20;;
261;SDS011;114;48.260;10.988;2022-12-18T13:54:19;39.57;;;21.57;;
261;SDS011;114;48.260;10.988;2022-12-18T13:56:54;35.33;;;19.47;;
261;SDS011;114;48.260;10.988;2022-12-18T13:59:21;37.13;;;20.10;;
261;SDS011;114;48.260;10.988;2022-12-18T14:01:52;37.40;;;20.27;;
261;SDS011;114;48.260;10.988;2022-12-18T14:04:19;40.60;;;22.10;;
261;SDS011;114;48.260;10.988;2022-12-18T14:06:49;34.63;;;19.43;;
261;SDS011;114;48.260;10.988;2022-12-18T14:09:19;36.53;;;19.97;;
261;SDS011;114;48.260;10.988;2022-12-18T14:11:50;37.20;;;18.87;;
261;SDS011;114;48.260;10.988;2022-12-18T14:14:17;37.40;;;19.77;;
261;SDS011;114;48.260;10.988;2022-12-18T14:16:44;37.80;;;21.70;;
261;SDS011;114;48.260;10.988;2022-12-18T14:19:14;37.07;;;20.43;;
261;SDS011;114;48.260;10.988;2022-12-18T14:21:46;37.30;;;19.20;;
261;SDS011;114;48.260;10.988;2022-12-18T14:24:16;38.27;;;19.43;;
261;SDS011;114;48.260;10.988;2022-12-18T14:26:44;36.80;;;21.10;;
261;SDS011;114;48.260;10.988;2022-12-18T14:29:24;38.90;;;20.50;;
261;SDS011;114;48.260;10.988;2022-12-18T14:34:37;39.20;;;20.77;;
261;SDS011;114;48.260;10.988;2022-12-18T14:37:03;47.33;;;22.60;;
261;SDS011;114;48.260;10.988;2022-12-18T14:39:29;45.17;;;23.70;;
261;SDS011;114;48.260;10.988;2022-12-18T14:41:55;40.10;;;22.27;;
261;SDS011;114;48.260;10.988;2022-12-18T14:44:21;45.87;;;22.17;;
261;SDS011;114;48.260;10.988;2022-12-18T14:46:47;41.73;;;22.97;;
261;SDS011;114;48.260;10.988;2022-12-18T14:51:55;43.03;;;23.50;;
261;SDS011;114;48.260;10.988;2022-12-18T14:54:22;46.57;;;23.47;;
261;SDS011;114;48.260;10.988;2022-12-18T14:57:14;40.63;;;21.80;;
261;SDS011;114;48.260;10.988;2022-12-18T14:59:44;44.93;;;24.13;;
261;SDS011;114;48.260;10.988;2022-12-18T15:04:44;47.83;;;25.67;;
261;SDS011;114;48.260;10.988;2022-12-18T15:10:31;49.07;;;23.67;;
261;SDS011;114;48.260;10.988;2022-12-18T15:18:02;46.87;;;24.57;;
261;SDS011;114;48.260;10.988;2022-12-18T15:20:30;55.60;;;30.67;;
261;SDS011;114;48.260;10.988;2022-12-18T15:22:57;53.43;;;27.07;;
261;SDS011;114;48.260;10.988;2022-12-18T15:25:28;66.20;;;27.37;;
261;SDS011;114;48.260;10.988;2022-12-18T15:28:01;52.23;;;24.00;;
261;SDS011;114;48.260;10.988;2022-12-18T15:30:28;60.43;;;27.47;;
261;SDS011;114;48.260;10.988;2022-12-18T15:33:16;55.33;;;24.67;;
261;SDS011;114;48.260;10.988;2022-12-18T15:35:57;50.10;;;23.87;;
261;SDS011;114;48.260;10.988;2022-12-18T15:38:34;49.57;;;22.97;;
261;SDS011;114;48.260;10.988;2022-12-18T15:41:00;51.70;;;23.80;;
261;SDS011;114;48.260;10.988;2022-12-18T15:43:29;59.57;;;25.23;;
261;SDS011;114;48.260;10.988;2022-12-18T15:46:02;57.00;;;25.60;;
261;SDS011;114;48.260;10.988;2022-12-18T15:48:32;45.87;;;24.53;;
261;SDS011;114;48.260;10.988;2022-12-18T15:50:59;43.40;;;22.73;;
261;SDS011;114;48.260;10.988;2022-12-18T15:53:28;45.67;;;24.30;;
261;SDS011;114;48.260;10.988;2022-12-18T15:55:56;42.33;;;23.10;;
261;SDS011;114;48.260;10.988;2022-12-18T15:58:42;48.53;;;24.20;;
261;SDS011;114;48.260;10.988;2022-12-18T16:01:08;46.93;;;24.10;;
261;SDS011;114;48.260;10.988;2022-12-18T16:03:35;40.87;;;21.87;;
261;SDS011;114;48.260;10.988;2022-12-18T16:06:01;39.33;;;21.47;;
261;SDS011;114;48.260;10.988;2022-12-18T16:08:29;43.90;;;21.03;;
261;SDS011;114;48.260;10.988;2022-12-18T16:10:56;43.17;;;22.73;;
261;SDS011;114;48.260;10.988;2022-12-18T16:13:23;43.83;;;20.83;;
261;SDS011;114;48.260;10.988;2022-12-18T16:15:48;49.83;;;23.57;;
261;SDS011;114;48.260;10.988;2022-12-18T16:18:15;41.40;;;21.63;;
261;SDS011;114;48.260;10.988;2022-12-18T16:20:40;37.43;;;20.77;;
261;SDS011;114;48.260;10.988;2022-12-18T16:23:06;43.33;;;21.80;;
261;SDS011;114;48.260;10.988;2022-12-18T16:25:32;40.60;;;20.93;;
261;SDS011;114;48.260;10.988;2022-12-18T16:27:58;40.00;;;21.17;;
261;SDS011;114;48.260;10.988;2022-12-18T16:30:25;43.63;;;22.57;;
261;SDS011;114;48.260;10.988;2022-12-18T16:32:55;39.60;;;21.37;;
261;SDS011;114;48.260;10.988;2022-12-18T16:35:24;41.40;;;22.27;;
261;SDS011;114;48.260;10.988;2022-12-18T16:37:50;43.63;;;23.53;;
261;SDS011;114;48.260;10.988;2022-12-18T16:40:16;50.10;;;24.73;;
261;SDS011;114;48.260;10.988;2022-12-18T16:42:43;42.73;;;24.97;;
261;SDS011;114;48.260;10.988;2022-12-18T16:45:11;39.77;;;21.37;;
261;SDS011;114;48.260;10.988;2022-12-18T16:47:39;42.03;;;23.90;;
261;SDS011;114;48.260;10.988;2022-12-18T16:50:05;41.77;;;22.40;;
261;SDS011;114;48.260;10.988;2022-12-18T16:52:32;41.87;;;21.73;;
261;SDS011;114;48.260;10.988;2022-12-18T16:54:58;43.17;;;23.60;;
261;SDS011;114;48.260;10.988;2022-12-18T16:57:24;38.57;;;21.10;;
261;SDS011;114;48.260;10.988;2022-12-18T16:59:50;42.87;;;21.40;;
261;SDS011;114;48.260;10.988;2022-12-18T17:02:19;41.20;;;20.77;;
261;SDS011;114;48.260;10.988;2022-12-18T17:04:47;40.40;;;20.57;;
261;SDS011;114;48.260;10.988;2022-12-18T17:07:14;43.10;;;22.63;;
261;SDS011;114;48.260;10.988;2022-12-18T17:09:40;40.37;;;19.93;;
261;SDS011;114;48.260;10.988;2022-12-18T17:12:06;38.80;;;20.13;;
261;SDS011;114;48.260;10.988;2022-12-18T17:14:33;48.20;;;23.07;;
261;SDS011;114;48.260;10.988;2022-12-18T17:16:59;43.83;;;21.47;;
261;SDS011;114;48.260;10.988;2022-12-18T17:19:26;38.53;;;21.33;;